Time;durP1;ratioP1;P1;durP2;ratioP2;P2;SDS_P1;SDS_P2;PMS_P1;PMS_P2;Temp;Humidity;BMP_temperature;BMP_pressure;BME280_temperature;BME280_humidity;BME280_pressure;Samples;Min_cycle;Max_cycle;Signal;HPM_P1;HPM_P2
2023/10/10 00:00:57;;;;;;;33.80;14.75;;;;;;;14.60;100.00;102126.09;6104450;19;20019;-76
2023/10/10 00:03:08;;;;;;;34.22;14.95;;;;;;;14.57;100.00;102123.56;6104939;19;20089;-78
2023/10/10 00:05:14;;;;;;;34.25;13.80;;;;;;;14.54;100.00;102125.47;6100566;19;20014;-76
2023/10/10 00:07:20;;;;;;;35.15;14.73;;;;;;;14.52;100.00;102125.47;6104913;19;20367;-74
2023/10/10 00:09:31;;;;;;;34.90;15.85;;;;;;;14.48;100.00;102124.75;6106988;19;20014;-74
2023/10/10 00:11:37;;;;;;;37.78;16.40;;;;;;;14.46;100.00;102121.28;6109481;19;20494;-75
2023/10/10 00:13:46;;;;;;;35.72;15.95;;;;;;;14.42;100.00;102124.09;6108451;19;20013;-74
2023/10/10 00:15:55;;;;;;;36.25;15.82;;;;;;;14.38;100.00;102122.47;6108316;19;20017;-75
2023/10/10 00:18:07;;;;;;;37.42;14.93;;;;;;;14.33;100.00;102121.78;6105903;19;20014;-73
2023/10/10 00:20:21;;;;;;;31.70;14.70;;;;;;;14.30;100.00;102120.09;6106019;19;20011;-76
2023/10/10 00:22:33;;;;;;;32.35;13.40;;;;;;;14.30;100.00;102122.75;6103562;19;20047;-73
2023/10/10 00:24:44;;;;;;;44.10;16.45;;;;;;;14.31;100.00;102121.81;6095782;19;20007;-73
2023/10/10 00:26:50;;;;;;;31.50;14.77;;;;;;;14.29;100.00;102121.00;6103444;19;20246;-74
2023/10/10 00:29:00;;;;;;;31.98;14.00;;;;;;;14.26;100.00;102115.84;6101598;19;22914;-74
2023/10/10 00:31:13;;;;;;;35.15;14.93;;;;;;;14.23;100.00;102114.16;6104050;19;20019;-74
2023/10/10 00:33:19;;;;;;;;;;;;;;;14.22;100.00;102111.59;6105085;19;20036;-76
2023/10/10 00:35:27;;;;;;;33.42;13.63;;;;;;;14.24;100.00;102109.72;6104545;19;19933;-78
2023/10/10 00:37:34;;;;;;;31.75;13.00;;;;;;;14.21;100.00;102110.69;6104714;19;20031;-76
2023/10/10 00:42:05;;;;;;;36.00;15.40;;;;;;;14.30;100.00;102104.25;6104149;19;20095;-78
2023/10/10 00:44:12;;;;;;;30.85;13.90;;;;;;;14.29;100.00;102102.50;6102364;19;20011;-78
2023/10/10 00:46:24;;;;;;;32.25;14.13;;;;;;;14.28;100.00;102103.44;6105948;19;20659;-78
2023/10/10 00:48:31;;;;;;;35.45;15.27;;;;;;;14.31;100.00;102100.66;6101597;19;20042;-78
2023/10/10 00:50:43;;;;;;;31.05;12.82;;;;;;;14.27;100.00;102101.72;6104456;19;20006;-76
2023/10/10 00:52:48;;;;;;;37.78;15.13;;;;;;;14.26;100.00;102102.63;6098224;19;20007;-77
2023/10/10 00:54:54;;;;;;;43.13;15.77;;;;;;;14.33;100.00;102096.19;6104568;19;20011;-78
2023/10/10 00:57:08;;;;;;;34.70;15.65;;;;;;;14.30;100.00;102095.44;6101775;19;20021;-78
2023/10/10 00:59:18;;;;;;;36.05;15.80;;;;;;;14.28;100.00;102091.06;6101190;19;20018;-78
2023/10/10 01:01:25;;;;;;;33.33;14.95;;;;;;;14.22;100.00;102087.78;6101756;19;20495;-76
2023/10/10 01:03:32;;;;;;;37.63;16.65;;;;;;;14.29;100.00;102091.91;6103197;19;20010;-79
2023/10/10 01:05:52;;;;;;;37.88;16.67;;;;;;;14.34;100.00;102092.63;6101422;19;20950;-78
2023/10/10 01:08:00;;;;;;;50.17;19.30;;;;;;;14.40;100.00;102086.25;6103432;19;20020;-75
2023/10/10 01:10:11;;;;;;;48.05;18.92;;;;;;;14.33;100.00;102084.75;6102375;19;20014;-75
2023/10/10 01:12:20;;;;;;;48.78;19.08;;;;;;;14.35;100.00;102082.91;6100740;19;20003;-74
2023/10/10 01:14:30;;;;;;;45.40;18.48;;;;;;;14.30;100.00;102077.81;6101662;19;20366;-75
2023/10/10 01:16:39;;;;;;;42.75;15.82;;;;;;;14.28;100.00;102082.28;6095244;19;20002;-75
2023/10/10 01:18:51;;;;;;;38.05;16.77;;;;;;;14.23;100.00;102076.28;6092192;19;20474;-74
2023/10/10 01:21:05;;;;;;;39.08;17.15;;;;;;;14.19;100.00;102077.31;6101174;19;20042;-75
2023/10/10 01:23:11;;;;;;;39.78;17.00;;;;;;;14.16;100.00;102073.00;6104976;19;20082;-76
2023/10/10 01:25:42;;;;;;;42.03;17.25;;;;;;;14.17;100.00;102069.44;6101552;19;20002;-77
2023/10/10 01:27:53;;;;;;;46.13;18.70;;;;;;;14.15;100.00;102078.34;6107037;19;20006;-79
2023/10/10 01:30:17;;;;;;;36.95;15.77;;;;;;;14.11;100.00;102069.66;6104254;19;20014;-77
2023/10/10 01:32:25;;;;;;;38.72;17.38;;;;;;;14.12;100.00;102063.47;6107391;19;20430;-76
2023/10/10 01:34:43;;;;;;;41.08;17.00;;;;;;;14.15;100.00;102058.06;6105999;19;20039;-77
2023/10/10 01:36:57;;;;;;;45.42;19.02;;;;;;;14.10;100.00;102062.66;6106269;19;20007;-76
2023/10/10 01:39:21;;;;;;;45.30;17.30;;;;;;;14.09;100.00;102058.28;6106493;19;20017;-78
2023/10/10 01:41:31;;;;;;;44.20;17.38;;;;;;;14.07;100.00;102062.75;6109172;19;20011;-78
2023/10/10 01:43:36;;;;;;;44.60;18.25;;;;;;;14.14;100.00;102058.09;6107960;19;20018;-74
2023/10/10 01:45:53;;;;;;;;;;;;;;;;;;;;;
2023/10/10 01:48:03;;;;;;;48.58;19.30;;;;;;;14.12;100.00;102049.38;6108824;19;20007;-77
2023/10/10 01:50:12;;;;;;;47.30;19.02;;;;;;;14.10;100.00;102048.56;6108612;19;20010;-79
2023/10/10 01:52:27;;;;;;;43.83;18.02;;;;;;;14.09;100.00;102049.50;6105290;19;20023;-78
2023/10/10 01:54:40;;;;;;;47.00;20.63;;;;;;;14.05;100.00;102036.38;6105372;19;20018;-78
2023/10/10 01:56:51;;;;;;;43.60;19.30;;;;;;;14.09;100.00;102047.72;6104122;19;20018;-78
2023/10/10 01:58:57;;;;;;;52.75;19.65;;;;;;;14.13;100.00;102037.88;6106974;19;20436;-78
2023/10/10 02:01:02;;;;;;;46.80;19.10;;;;;;;14.14;100.00;102039.59;6111059;19;20010;-77
2023/10/10 02:03:07;;;;;;;42.00;17.88;;;;;;;14.11;100.00;102037.06;6107751;19;20006;-77
2023/10/10 02:05:13;;;;;;;53.13;21.60;;;;;;;14.22;100.00;102027.84;6109971;19;20523;-77
2023/10/10 02:07:31;;;;;;;57.10;22.85;;;;;;;14.27;100.00;102027.69;6110275;19;20007;-77
2023/10/10 02:09:40;;;;;;;50.05;21.25;;;;;;;14.22;100.00;102035.78;6109470;19;20038;-77
2023/10/10 02:11:54;;;;;;;53.97;21.30;;;;;;;14.23;100.00;102029.56;6109321;19;20043;-78
2023/10/10 02:14:02;;;;;;;55.80;22.42;;;;;;;14.26;100.00;102034.72;6110387;19;20011;-79
2023/10/10 02:16:10;;;;;;;50.72;20.70;;;;;;;14.17;100.00;102029.78;6109993;19;20030;-78
2023/10/10 02:18:23;;;;;;;50.80;19.60;;;;;;;14.12;100.00;102041.47;6084469;19;20075;-76
2023/10/10 02:23:09;;;;;;;58.10;20.83;;;;;;;14.08;100.00;102030.13;6104717;19;20002;-79
2023/10/10 02:27:32;;;;;;;51.83;19.83;;;;;;;14.04;100.00;102029.38;6109272;19;20100;-75
2023/10/10 02:29:35;;;;;;;48.75;20.27;;;;;;;14.00;100.00;102030.38;6106615;19;20011;-78
2023/10/10 02:31:45;;;;;;;51.97;21.33;;;;;;;13.97;100.00;102025.22;6106418;19;20528;-79
2023/10/10 02:33:55;;;;;;;52.50;21.55;;;;;;;14.00;100.00;102017.16;6108011;19;20002;-79
2023/10/10 02:36:07;;;;;;;56.95;22.60;;;;;;;14.05;100.00;102009.94;6086355;19;20010;-78
2023/10/10 02:38:18;;;;;;;53.70;21.77;;;;;;;14.08;100.00;102010.75;6107727;19;20034;-77
2023/10/10 02:40:31;;;;;;;55.83;22.17;;;;;;;14.07;100.00;102004.59;6105741;19;20015;-78
2023/10/10 02:42:36;;;;;;;59.47;23.75;;;;;;;14.23;100.00;102008.41;6109314;19;19999;-77
2023/10/10 02:44:46;;;;;;;59.90;24.13;;;;;;;14.17;100.00;102002.50;6101314;19;20002;-75
2023/10/10 02:46:53;;;;;;;62.28;24.48;;;;;;;14.19;100.00;102000.63;6102035;19;20011;-75
2023/10/10 02:49:09;;;;;;;60.42;24.02;;;;;;;14.15;100.00;101999.91;6104920;19;20030;-75
2023/10/10 02:51:18;;;;;;;50.05;21.02;;;;;;;14.15;100.00;102004.34;6100339;19;20010;-76
2023/10/10 02:53:32;;;;;;;60.20;25.25;;;;;;;14.14;100.00;102003.47;6101769;19;20010;-75
2023/10/10 02:55:41;;;;;;;64.20;25.15;;;;;;;14.15;100.00;101999.03;6105672;19;20574;-76
2023/10/10 02:57:47;;;;;;;62.05;25.05;;;;;;;14.18;100.00;102004.22;6104848;19;20003;-74
2023/10/10 02:59:52;;;;;;;63.78;23.65;;;;;;;14.15;100.00;102004.34;6105746;19;20357;-76
2023/10/10 03:01:59;;;;;;;67.20;24.80;;;;;;;14.20;100.00;102005.03;6098538;19;20010;-76
2023/10/10 03:04:08;;;;;;;71.45;23.77;;;;;;;14.24;100.00;101996.03;6095512;19;20178;-75
2023/10/10 03:06:16;;;;;;;64.70;25.23;;;;;;;14.25;100.00;102000.44;6098400;19;20175;-75
2023/10/10 03:08:34;;;;;;;70.95;26.67;;;;;;;14.28;100.00;102001.16;6096017;19;20553;-75
2023/10/10 03:10:45;;;;;;;66.95;24.90;;;;;;;14.22;100.00;101997.91;6094828;19;20010;-78
2023/10/10 03:12:51;;;;;;;64.35;25.67;;;;;;;14.23;100.00;101996.97;6096238;19;20618;-76
2023/10/10 03:15:12;;;;;;;65.10;23.77;;;;;;;14.19;100.00;101995.34;6094416;19;20039;-75
2023/10/10 03:17:31;;;;;;;68.95;24.70;;;;;;;14.24;100.00;102001.34;6093117;19;20007;-74
2023/10/10 03:19:38;;;;;;;64.68;26.73;;;;;;;14.25;100.00;102006.56;6099998;19;20021;-74
2023/10/10 03:21:51;;;;;;;63.03;24.10;;;;;;;14.22;100.00;102001.41;6076527;19;20554;-76
2023/10/10 03:23:56;;;;;;;60.95;23.25;;;;;;;14.18;100.00;101988.34;6099062;19;20007;-77
2023/10/10 03:26:07;;;;;;;62.65;26.25;;;;;;;14.15;100.00;101988.47;6100710;19;20027;-77
2023/10/10 03:28:18;;;;;;;57.90;23.38;;;;;;;14.20;100.00;101987.38;6097995;19;20088;-77
2023/10/10 03:30:34;;;;;;;63.33;25.33;;;;;;;14.25;100.00;101984.56;6097419;19;20039;-79
2023/10/10 03:32:59;;;;;;;57.95;24.33;;;;;;;14.16;100.00;101984.91;6089286;19;20082;-75
2023/10/10 03:35:20;;;;;;;60.78;25.00;;;;;;;14.23;100.00;101987.25;6098051;19;20022;-75
2023/10/10 03:39:53;;;;;;;58.72;24.50;;;;;;;14.21;100.00;101980.31;6096531;19;20452;-76
2023/10/10 05:24:00;;;;;;;67.22;28.83;;;;;;;13.44;100.00;101888.00;6094121;19;20035;-74
2023/10/10 05:26:06;;;;;;;70.97;30.13;;;;;;;13.47;100.00;101885.25;6096559;19;20062;-75
2023/10/10 05:28:12;;;;;;;72.75;29.55;;;;;;;13.49;100.00;101888.69;6091387;19;20438;-75
2023/10/10 05:30:44;;;;;;;83.90;34.00;;;;;;;13.49;100.00;101898.41;6095207;19;20078;-75
2023/10/10 05:33:00;;;;;;;76.55;31.17;;;;;;;13.54;100.00;101892.03;6095399;19;20031;-77
2023/10/10 05:35:11;;;;;;;73.72;32.42;;;;;;;13.60;100.00;101891.81;6098512;19;20354;-79
2023/10/10 05:37:17;;;;;;;80.82;34.33;;;;;;;13.66;100.00;101885.44;6096146;19;20074;-77
2023/10/10 05:39:23;;;;;;;73.68;31.42;;;;;;;13.65;100.00;101883.72;6095992;19;20618;-79
2023/10/10 05:41:29;;;;;;;79.10;34.35;;;;;;;13.70;100.00;101881.78;6094393;19;20363;-77
2023/10/10 05:43:33;;;;;;;67.50;30.55;;;;;;;13.70;100.00;101878.28;6097110;19;20017;-78
2023/10/10 05:45:39;;;;;;;75.75;35.03;;;;;;;13.66;100.00;101874.88;6101227;19;20489;-77
2023/10/10 05:47:50;;;;;;;63.15;30.27;;;;;;;13.70;100.00;101870.34;6098169;19;24681;-77
2023/10/10 05:49:57;;;;;;;71.22;31.23;;;;;;;13.77;100.00;101867.44;6096614;19;20660;-77
2023/10/10 05:52:06;;;;;;;81.22;33.85;;;;;;;13.80;100.00;101877.88;6098316;19;20014;-78
2023/10/10 05:54:12;;;;;;;87.95;36.75;;;;;;;13.79;100.00;101876.13;6098735;19;20739;-77
2023/10/10 05:56:20;;;;;;;76.18;34.92;;;;;;;13.80;100.00;101866.44;6100465;19;20010;-76
2023/10/10 05:58:23;;;;;;;84.07;34.47;;;;;;;13.76;100.00;101870.09;6096173;19;20007;-75
2023/10/10 06:00:28;;;;;;;78.90;33.25;;;;;;;13.78;100.00;101865.63;6098424;19;20007;-75
2023/10/10 06:02:36;;;;;;;80.07;34.00;;;;;;;13.77;100.00;101870.06;6097173;19;20086;-77
2023/10/10 06:04:47;;;;;;;85.85;33.33;;;;;;;13.75;100.00;101871.91;6096328;19;20031;-76
2023/10/10 06:06:52;;;;;;;85.03;34.88;;;;;;;13.75;100.00;101863.97;6098397;19;20024;-78
2023/10/10 06:09:04;;;;;;;79.75;37.78;;;;;;;13.83;100.00;101864.53;6103349;19;20014;-77
2023/10/10 06:11:13;;;;;;;78.15;35.47;;;;;;;13.79;100.00;101862.91;6101250;19;20042;-77
2023/10/10 06:13:20;;;;;;;86.05;37.53;;;;;;;13.82;100.00;101861.94;6098486;19;20011;-76
2023/10/10 06:15:28;;;;;;;93.05;37.10;;;;;;;13.79;100.00;101860.28;6101606;19;20102;-75
2023/10/10 06:17:38;;;;;;;80.53;33.78;;;;;;;13.83;100.00;101868.97;6104270;19;20480;-77
2023/10/10 06:19:51;;;;;;;86.35;36.05;;;;;;;13.82;100.00;101867.22;6104895;19;20870;-78
2023/10/10 06:22:08;;;;;;;86.38;37.75;;;;;;;13.86;100.00;101866.22;6107846;19;20038;-78
2023/10/10 06:24:17;;;;;;;87.88;38.33;;;;;;;13.88;100.00;101868.81;6104182;19;20006;-77
2023/10/10 06:26:24;;;;;;;90.97;35.17;;;;;;;13.93;100.00;101864.19;6105696;19;20009;-75
2023/10/10 06:28:35;;;;;;;89.95;36.20;;;;;;;14.00;100.00;101869.16;6107648;19;20011;-78
2023/10/10 06:30:41;;;;;;;85.68;35.80;;;;;;;13.95;100.00;101868.47;6100401;19;20511;-76
2023/10/10 06:32:48;;;;;;;86.20;38.65;;;;;;;13.95;100.00;101868.47;6103443;19;20103;-77
2023/10/10 06:35:13;;;;;;;90.50;36.25;;;;;;;13.98;100.00;101865.75;6097760;19;20090;-78
2023/10/10 06:37:26;;;;;;;89.38;34.88;;;;;;;14.03;100.00;101871.72;6103534;19;20557;-75
2023/10/10 06:39:53;;;;;;;80.22;34.72;;;;;;;14.10;100.00;101861.75;6107287;19;20006;-75
2023/10/10 06:42:03;;;;;;;82.45;36.35;;;;;;;14.10;100.00;101863.53;6103670;19;20011;-75
2023/10/10 06:44:12;;;;;;;73.60;33.58;;;;;;;14.10;100.00;101864.41;6105618;19;20018;-74
2023/10/10 06:46:19;;;;;;;85.25;36.28;;;;;;;14.18;100.00;101864.97;6106694;19;20038;-75
2023/10/10 06:48:40;;;;;;;81.47;35.08;;;;;;;14.21;100.00;101862.19;6110036;19;20038;-78
2023/10/10 06:50:49;;;;;;;88.15;38.60;;;;;;;14.24;100.00;101867.38;6097000;19;20007;-75
2023/10/10 06:52:55;;;;;;;77.88;35.95;;;;;;;14.25;100.00;101860.31;6100691;19;20017;-75
2023/10/10 06:55:10;;;;;;;87.45;37.10;;;;;;;14.32;100.00;101856.47;6103782;19;20018;-76
2023/10/10 06:57:17;;;;;;;88.53;37.55;;;;;;;14.33;100.00;101852.94;6097267;19;20007;-75
2023/10/10 06:59:26;;;;;;;90.35;38.58;;;;;;;14.35;100.00;101858.13;6100378;19;20014;-75
2023/10/10 07:01:32;;;;;;;89.03;36.70;;;;;;;14.37;100.00;101861.59;6098991;19;20082;-75
2023/10/10 07:03:39;;;;;;;89.75;38.17;;;;;;;14.46;100.00;101867.38;6099538;19;20002;-75
2023/10/10 07:05:49;;;;;;;85.28;34.15;;;;;;;14.47;100.00;101858.50;6103127;19;20380;-75
2023/10/10 07:07:58;;;;;;;80.50;35.47;;;;;;;14.50;100.00;101857.53;6105548;19;19999;-77
2023/10/10 07:10:09;;;;;;;85.57;37.13;;;;;;;14.55;100.00;101854.72;6102101;19;20019;-76
2023/10/10 07:12:16;;;;;;;80.70;35.95;;;;;;;14.60;100.00;101855.41;6094508;19;20136;-77
2023/10/10 07:14:25;;;;;;;87.82;37.63;;;;;;;14.65;100.00;101853.44;6095771;19;20002;-75
2023/10/10 07:16:32;;;;;;;84.22;37.70;;;;;;;14.68;100.00;101845.38;6099114;19;20136;-77
2023/10/10 07:18:40;;;;;;;86.78;38.78;;;;;;;14.73;100.00;101853.13;6101507;19;20609;-79
2023/10/10 07:23:24;;;;;;;89.95;38.88;;;;;;;14.82;100.00;101858.00;6100391;19;20002;-75
2023/10/10 07:25:58;;;;;;;91.97;36.15;;;;;;;14.88;100.00;101863.06;6120898;19;20014;-80
2023/10/10 07:28:05;;;;;;;76.55;37.80;;;;;;;14.91;100.00;101853.19;6116963;19;20007;-79
2023/10/10 07:30:19;;;;;;;86.57;38.35;;;;;;;15.01;100.00;101860.72;6106202;19;20010;-75
2023/10/10 07:32:31;;;;;;;83.38;35.92;;;;;;;15.05;100.00;101857.91;6101200;19;20480;-75
2023/10/10 07:34:42;;;;;;;96.05;40.30;;;;;;;15.05;100.00;101859.69;6104741;19;20491;-76
2023/10/10 07:36:50;;;;;;;90.10;39.45;;;;;;;15.11;100.00;101860.31;6087257;19;20484;-80
2023/10/10 07:41:27;;;;;;;90.40;39.08;;;;;;;15.15;100.00;101853.94;6102723;19;20015;-76
2023/10/10 07:43:37;;;;;;;90.65;36.83;;;;;;;15.26;100.00;101861.41;6100452;19;20015;-76
2023/10/10 07:45:54;;;;;;;74.30;35.42;;;;;;;15.28;100.00;101859.56;6095332;19;20324;-76
2023/10/10 07:50:27;;;;;;;83.60;38.35;;;;;;;15.22;100.00;101849.25;6089021;19;20086;-76
2023/10/10 07:52:47;;;;;;;85.22;36.45;;;;;;;15.38;100.00;101857.38;6099240;19;20011;-76
2023/10/10 07:55:05;;;;;;;77.72;33.30;;;;;;;15.48;100.00;101855.16;6098518;19;20010;-81
2023/10/10 07:57:17;;;;;;;80.15;32.72;;;;;;;15.59;100.00;101852.91;6106152;19;20322;-78
2023/10/10 07:59:23;;;;;;;85.72;37.97;;;;;;;15.60;100.00;101859.91;6105966;19;20047;-78
2023/10/10 08:01:28;;;;;;;88.55;36.88;;;;;;;15.72;100.00;101863.84;6106082;19;20014;-79
2023/10/10 08:03:52;;;;;;;79.68;35.92;;;;;;;15.91;100.00;101850.59;6097208;19;20011;-75
2023/10/10 08:06:00;;;;;;;91.13;36.33;;;;;;;15.91;100.00;101851.44;6099153;19;20520;-76
2023/10/10 08:08:13;;;;;;;80.25;36.70;;;;;;;15.95;100.00;101852.16;6100832;19;20011;-76
2023/10/10 08:10:38;;;;;;;81.45;37.92;;;;;;;15.99;100.00;101854.59;6090138;19;20011;-76
2023/10/10 08:12:52;;;;;;;84.07;37.25;;;;;;;16.06;100.00;101859.59;6097960;19;20023;-75
2023/10/10 08:15:10;;;;;;;77.22;35.22;;;;;;;16.09;100.00;101862.97;6101998;19;20074;-79
2023/10/10 08:17:25;;;;;;;79.40;36.83;;;;;;;16.22;100.00;101853.50;6104477;19;20013;-79
2023/10/10 08:19:33;;;;;;;83.88;38.72;;;;;;;16.30;100.00;101854.91;6111996;19;20403;-80
2023/10/10 08:21:48;;;;;;;84.32;37.90;;;;;;;16.19;100.00;101850.13;6106265;19;20497;-81
2023/10/10 08:23:57;;;;;;;89.35;37.47;;;;;;;16.44;100.00;101860.41;6106540;19;20010;-79
2023/10/10 08:26:07;;;;;;;90.28;37.33;;;;;;;16.39;100.00;101859.78;6104207;19;20113;-79
2023/10/10 08:28:16;;;;;;;83.95;37.20;;;;;;;16.59;100.00;101870.28;6107593;19;20007;-79
2023/10/10 08:30:25;;;;;;;85.85;37.55;;;;;;;16.72;100.00;101867.00;6103252;19;20018;-80
2023/10/10 08:32:36;;;;;;;82.10;34.00;;;;;;;16.93;100.00;101870.41;6108394;19;20019;-79
2023/10/10 08:34:45;;;;;;;79.25;36.55;;;;;;;17.10;100.00;101860.66;6104441;19;20356;-79
2023/10/10 08:36:51;;;;;;;83.80;36.92;;;;;;;17.17;100.00;101866.50;6101010;19;20491;-79
2023/10/10 08:39:17;;;;;;;72.68;32.97;;;;;;;17.16;100.00;101856.81;6107575;19;20319;-80
2023/10/10 08:41:29;;;;;;;62.55;31.70;;;;;;;17.47;100.00;101856.06;6104345;19;20025;-78
2023/10/10 08:43:45;;;;;;;70.72;33.40;;;;;;;17.63;100.00;101860.56;6106846;19;20024;-80
2023/10/10 08:45:54;;;;;;;71.85;30.83;;;;;;;17.55;100.00;101861.81;6106950;19;20497;-80
2023/10/10 08:48:01;;;;;;;76.78;33.00;;;;;;;17.35;100.00;101862.00;6106436;19;20018;-80
2023/10/10 08:50:09;;;;;;;60.97;31.63;;;;;;;17.42;100.00;101851.94;6107091;19;20007;-79
2023/10/10 08:52:20;;;;;;;67.68;31.50;;;;;;;17.36;100.00;101863.75;6108064;19;20014;-79
2023/10/10 08:54:34;;;;;;;67.38;32.25;;;;;;;17.44;100.00;101858.03;6106189;19;20578;-77
2023/10/10 08:56:39;;;;;;;61.42;30.45;;;;;;;17.40;100.00;101862.63;6101601;19;20026;-78
2023/10/10 08:58:50;;;;;;;63.88;30.08;;;;;;;17.35;100.00;101859.34;6113325;19;20094;-80
2023/10/10 09:01:00;;;;;;;71.60;30.90;;;;;;;17.49;100.00;101861.31;6109272;19;20038;-80
2023/10/10 09:03:09;;;;;;;61.85;31.23;;;;;;;17.84;100.00;101855.91;6109156;19;20007;-76
2023/10/10 09:05:19;;;;;;;73.35;32.30;;;;;;;18.13;100.00;101864.94;6100754;19;20353;-75
2023/10/10 09:07:32;;;;;;;68.75;30.17;;;;;;;18.25;100.00;101860.75;6096233;19;20034;-75
2023/10/10 09:09:54;;;;;;;59.38;29.08;;;;;;;18.24;100.00;101854.53;6075818;19;20463;-75
2023/10/10 09:12:02;;;;;;;66.57;32.33;;;;;;;18.20;100.00;101848.53;6094839;19;20446;-74
2023/10/10 09:14:18;;;;;;;63.20;28.58;;;;;;;18.63;100.00;101845.22;6090368;19;20021;-75
2023/10/10 09:16:54;;;;;;;68.03;30.02;;;;;;;18.72;100.00;101850.00;6089522;19;20460;-74
2023/10/10 09:19:11;;;;;;;65.28;29.08;;;;;;;18.79;100.00;101845.19;6097644;19;20684;-77
2023/10/10 09:21:18;;;;;;;59.45;27.33;;;;;;;19.15;100.00;101847.47;6092953;19;20006;-75
2023/10/10 09:23:27;;;;;;;64.20;28.95;;;;;;;19.14;100.00;101850.22;6095884;19;20151;-79
2023/10/10 09:25:31;;;;;;;55.88;25.73;;;;;;;19.03;100.00;101850.88;6101379;19;20056;-79
2023/10/10 09:27:39;;;;;;;58.83;27.77;;;;;;;19.31;100.00;101855.41;6106881;19;20251;-79
2023/10/10 09:29:47;;;;;;;56.80;26.13;;;;;;;19.68;100.00;101843.31;6107288;19;20618;-78
2023/10/10 09:31:59;;;;;;;52.90;26.80;;;;;;;19.91;99.30;101857.88;6102543;19;20660;-75
2023/10/10 09:34:12;;;;;;;60.28;27.30;;;;;;;19.76;97.08;101850.00;6093629;19;21009;-77
2023/10/10 09:36:19;;;;;;;53.60;26.27;;;;;;;19.89;97.98;101850.94;6103436;19;20007;-80
2023/10/10 09:38:33;;;;;;;51.42;25.48;;;;;;;20.17;96.15;101848.22;6109994;19;20023;-80
2023/10/10 09:40:59;;;;;;;54.58;25.65;;;;;;;20.17;95.46;101853.53;6097222;19;20035;-80
2023/10/10 09:43:23;;;;;;;51.60;23.38;;;;;;;20.23;94.87;101846.94;6108531;19;20042;-79
2023/10/10 09:48:05;;;;;;;;;;;;;;;20.31;94.22;101862.47;6103522;19;20622;-79
2023/10/10 09:54:56;;;;;;;56.10;24.67;;;;;;;20.18;92.71;101844.56;6097376;19;20066;-76
2023/10/10 09:57:08;;;;;;;58.88;25.75;;;;;;;20.21;92.93;101848.00;6094188;19;20024;-76
2023/10/10 09:59:20;;;;;;;57.53;23.35;;;;;;;20.04;93.61;101852.63;6101166;19;20007;-75
2023/10/10 10:01:44;;;;;;;52.88;23.67;;;;;;;20.14;92.96;101848.41;6092651;19;20448;-75
2023/10/10 10:04:03;;;;;;;54.50;24.65;;;;;;;20.40;93.16;101848.50;6102221;19;20590;-76
2023/10/10 10:06:38;;;;;;;53.75;24.83;;;;;;;20.41;92.96;101846.72;6112237;19;20007;-79
2023/10/10 10:09:31;;;;;;;47.40;22.27;;;;;;;20.65;91.37;101842.44;6103916;19;20010;-79
2023/10/10 10:11:53;;;;;;;50.67;22.98;;;;;;;20.79;91.14;101852.19;6104608;19;20007;-80
2023/10/10 10:14:13;;;;;;;48.65;22.23;;;;;;;20.77;90.80;101846.06;6100122;19;20011;-77
2023/10/10 10:16:37;;;;;;;65.80;23.58;;;;;;;20.53;89.66;101837.88;6104197;19;20021;-83
2023/10/10 10:18:52;;;;;;;49.53;20.50;;;;;;;20.72;89.94;101835.72;6104942;19;20064;-82
2023/10/10 10:23:28;;;;;;;46.88;20.02;;;;;;;20.85;89.16;101849.06;6107608;19;20010;-79
2023/10/10 10:25:35;;;;;;;47.55;21.55;;;;;;;21.07;88.19;101853.84;6101604;19;20373;-78
2023/10/10 10:27:49;;;;;;;42.70;21.30;;;;;;;21.05;87.82;101855.75;6108070;19;20564;-80
2023/10/10 10:30:08;;;;;;;57.42;22.90;;;;;;;20.97;87.76;101858.94;6109143;19;20454;-82
2023/10/10 10:32:18;;;;;;;49.65;21.98;;;;;;;21.09;87.83;101851.03;6106074;19;20059;-78
2023/10/10 10:34:31;;;;;;;43.78;23.08;;;;;;;21.26;85.69;101853.41;6110037;19;20007;-82
2023/10/10 10:36:48;;;;;;;43.70;18.95;;;;;;;21.27;86.19;101852.44;6100210;19;20637;-80
2023/10/10 10:41:42;;;;;;;46.42;20.80;;;;;;;21.45;85.46;101848.50;6117481;19;20014;-76
2023/10/10 10:43:49;;;;;;;38.50;18.98;;;;;;;21.48;84.25;101853.66;6100914;19;20024;-77
2023/10/10 10:46:14;;;;;;;45.58;21.27;;;;;;;21.27;85.92;101853.31;6098280;19;20593;-77
2023/10/10 10:48:38;;;;;;;44.13;20.77;;;;;;;21.52;84.52;101848.09;6108406;19;20010;-81
2023/10/10 10:50:42;;;;;;;41.22;19.70;;;;;;;21.79;83.27;101855.97;6112269;19;20003;-81
2023/10/10 10:52:56;;;;;;;47.63;21.75;;;;;;;21.57;83.09;101849.47;6100122;19;20089;-76
2023/10/10 10:55:22;;;;;;;46.85;21.35;;;;;;;21.33;85.71;101849.34;6096061;19;20002;-77
2023/10/10 10:57:30;;;;;;;44.42;21.90;;;;;;;21.69;83.90;101845.91;6092786;19;20080;-76
2023/10/10 10:59:58;;;;;;;45.47;20.02;;;;;;;21.94;82.59;101854.00;6086207;19;20010;-75
2023/10/10 11:02:14;;;;;;;53.22;21.85;;;;;;;21.76;83.05;101850.84;6100325;19;20010;-75
2023/10/10 11:04:42;;;;;;;49.63;21.63;;;;;;;21.65;82.60;101843.59;6099752;19;20265;-76
2023/10/10 11:07:26;;;;;;;46.33;20.50;;;;;;;21.94;82.81;101849.50;6066443;19;20010;-77
2023/10/10 11:09:42;;;;;;;;;;;;;;;21.74;83.29;101853.59;6082146;19;20014;-75
2023/10/10 11:11:58;;;;;;;46.97;19.58;;;;;;;21.81;82.37;101848.69;6102173;19;19929;-75
2023/10/10 11:14:35;;;;;;;;;;;;;;;;;;;;;
2023/10/10 11:17:17;;;;;;;42.40;21.73;;;;;;;21.48;83.92;101818.91;6106826;19;20020;-82
2023/10/10 11:21:57;;;;;;;41.92;20.13;;;;;;;21.80;82.96;101814.84;6064937;19;20078;-76
2023/10/10 11:24:04;;;;;;;47.50;21.23;;;;;;;21.90;83.04;101818.56;6103503;19;20101;-76
2023/10/10 11:26:20;;;;;;;40.00;20.73;;;;;;;22.01;83.43;101815.09;6096345;19;20011;-75
2023/10/10 11:28:47;;;;;;;42.10;20.42;;;;;;;22.05;84.02;101813.94;6088529;19;20403;-76
2023/10/10 11:30:59;;;;;;;39.33;16.70;;;;;;;22.13;83.08;101812.38;6098933;19;20002;-76
2023/10/10 11:33:16;;;;;;;44.53;20.95;;;;;;;22.35;82.13;101800.09;6097472;19;20631;-78
2023/10/10 11:36:02;;;;;;;42.75;19.48;;;;;;;22.55;81.16;101794.09;6094338;19;20571;-77
2023/10/10 11:38:33;;;;;;;44.92;20.30;;;;;;;22.28;80.98;101783.66;6100544;19;20013;-76
2023/10/10 11:41:21;;;;;;;38.28;18.70;;;;;;;22.33;80.01;101783.31;6096587;19;20006;-76
2023/10/10 11:44:03;;;;;;;35.90;16.10;;;;;;;22.61;79.05;101787.41;5975404;19;20067;-80
2023/10/10 11:46:11;;;;;;;41.83;18.13;;;;;;;22.81;80.70;101783.22;6088881;19;20578;-80
2023/10/10 11:48:17;;;;;;;42.97;18.17;;;;;;;22.77;79.31;101771.84;6110711;19;20007;-76
2023/10/10 11:50:29;;;;;;;44.80;18.92;;;;;;;22.01;81.83;101777.63;6098574;19;20010;-75
2023/10/10 11:52:34;;;;;;;38.15;16.52;;;;;;;22.50;80.48;101765.97;6096415;19;20024;-76
2023/10/10 11:54:54;;;;;;;39.58;18.23;;;;;;;22.46;78.96;101769.81;6090727;19;20438;-77
2023/10/10 11:57:04;;;;;;;43.92;18.60;;;;;;;22.51;78.23;101781.03;6104543;19;20019;-76
2023/10/10 11:59:17;;;;;;;40.83;16.90;;;;;;;22.53;77.34;101771.06;6099555;19;20463;-76
2023/10/10 12:01:47;;;;;;;41.10;17.63;;;;;;;22.89;77.23;101771.91;6090941;19;20078;-75
2023/10/10 12:04:06;;;;;;;40.13;16.67;;;;;;;22.79;78.21;101772.59;6050777;19;20010;-77
2023/10/10 12:06:26;;;;;;;39.33;17.02;;;;;;;22.82;76.27;101776.88;5944114;19;2004652;-77
2023/10/10 12:08:37;;;;;;;28.73;13.82;;;;;;;23.08;76.71;101777.56;5958721;19;2004706;-76
2023/10/10 12:10:52;;;;;;;36.15;15.93;;;;;;;23.12;75.63;101768.31;6057194;19;20802;-76
2023/10/10 12:12:57;;;;;;;39.47;15.90;;;;;;;22.60;76.00;101776.84;6060575;19;20039;-76
2023/10/10 12:15:08;;;;;;;39.63;15.23;;;;;;;23.14;75.96;101771.69;6055868;19;20018;-76